x

Ne St Martin - 330 Nm Ne St Martin Is (41044) Wave Buoy

8:50am - Fri 6th Mar 2015 All times are UTC.

  • Sig Wave height 8.5ft
  • Swell Direction
  • Peak Period 8s
  • Average Period 7s
  • Wind
    20mph, 25mph gusts
  • Sea Temp 78°f
  • Air Temp 76°f
  • Sea Pressure 1020.8mb

More Historic Weather Station data

Upgrade to MSW Pro to gain access to the past 30 days of data for over 8000 Wavebouys and Weather Stations around the globe.

Join Pro

Comparision Forecast

View Surf forecast
   
Fri 03/06 8:50am 8.5ft 8s 7s 20 25 mph 1020.8mb 78f 76f
7:50am 8ft 11s 7s 18 22 mph 1020.7mb 78f 76f
6:50am 9ft 12s 7s 18 25 mph 1021mb 78f 75f
5:50am 9ft 11s 7s 22 27 mph 1021.5mb 78f 76f
4:50am 9ft 9s 7s 20 25 mph 1022.4mb 78f 76f
3:50am 9ft 11s 7s 20 25 mph 1022.8mb 78f 76f
2:50am 8.5ft 7s 7s 20 25 mph 1023mb 78f 76f
1:50am 9ft 11s 7s 22 27 mph 1022.7mb 78f 76f
12:50am 9.5ft 10s 7s 20 25 mph 1022.3mb 78f 76f
Thu 03/05 11:50pm 8.5ft 10s 7s 22 29 mph 1021.6mb 78f 76f
10:50pm 9ft 12s 7s 22 25 mph 1021.3mb 78f 77f
9:50pm 9ft 11s 7s 20 25 mph 1021.2mb 78f 77f
8:50pm 8.5ft 11s 7s 20 25 mph 1020.8mb 78f 77f
7:50pm 9ft 13s 7s 22 25 mph 1020.6mb 78f 77f
6:50pm 8.5ft 7s 7s 20 25 mph 1020.5mb 78f 77f
5:50pm 8ft 11s 7s 20 25 mph 1020.8mb 78f 76f
4:50pm 7.5ft 11s 6s 22 27 mph 1021.5mb 78f 76f
3:50pm 8ft 10s 6s 22 27 mph 1022.4mb 78f 77f
2:50pm 7.5ft 11s 6s 22 27 mph 1022.9mb 78f 77f
1:50pm 8ft 6s 6s 25 27 mph 1022.8mb 78f 76f
12:50pm 7.5ft 11s 6s 25 27 mph 1022.5mb 78f 76f
11:50am 6.5ft 6s 6s 20 27 mph 1022.1mb 78f 76f
10:50am 6.5ft 10s 6s 22 27 mph 1021.4mb 78f 76f
9:50am 6.5ft 7s 6s 20 27 mph 1020.8mb 78f 76f
8:50am 7ft 9s 6s 20 25 mph 1020.5mb 78f 76f
7:50am 6ft 10s 6s 22 27 mph 1020.4mb 78f 76f
6:50am 7ft 10s 6s 20 25 mph 1020.7mb 78f 75f
5:50am 6.5ft 10s 6s 18 22 mph 1021.5mb 78f 76f
4:50am 6.5ft 10s 6s 20 25 mph 1022.1mb 78f 76f
3:50am 6.5ft 10s 6s 22 27 mph 1022.7mb 78f 73f
2:50am 6ft 7s 6s 20 25 mph 1022.7mb 78f 76f
1:50am 6.5ft 8s 6s 20 25 mph 1022.5mb 78f 76f
12:50am 6ft 10s 6s 18 22 mph 1022.1mb 78f 76f
Wed 03/04 11:50pm 6ft 10s 6s 18 22 mph 1021.5mb 78f 76f
10:50pm 6.5ft 10s 6s 18 22 mph 1020.9mb 78f 76f
9:50pm 7ft 10s 6s 18 22 mph 1020.7mb 78f 76f
8:50pm 7.5ft 10s 6s 18 22 mph 1020.4mb 78f 76f
7:50pm 6ft 10s 6s 18 22 mph 1019.8mb 78f 76f
6:50pm 7ft 6s 6s 20 25 mph 1020mb 78f 76f
5:50pm 6.5ft 11s 6s 20 22 mph 1020.5mb 78f 76f
4:50pm 7ft 10s 6s 20 25 mph 1021.1mb 78f 76f
3:50pm 7ft 9s 6s 20 22 mph 1021.8mb 78f 76f
2:50pm 6.5ft 10s 6s 20 25 mph 1022.2mb 78f 76f
1:50pm 7ft 9s 6s 20 25 mph 1022mb 78f 76f
12:50pm 7ft 10s 6s 18 25 mph 1021.5mb 78f 76f
11:50am 7ft 10s 7s 18 22 mph 1020.9mb 78f 76f
10:50am 6.5ft 9s 6s 18 22 mph 1020.3mb 78f 76f
9:50am 7ft 10s 7s 20 25 mph 1019.6mb 78f 76f
8:50am 7ft 10s 7s 18 22 mph 1018.9mb 78f 76f
7:50am 6.5ft 11s 6s 16 20 mph 1018.8mb 78f 75f
6:50am 6.5ft 10s 7s 16 18 mph 1019.1mb 78f 75f
5:50am 7ft 10s 7s 13 18 mph 1019.5mb 78f 75f
4:50am 7ft 11s 7s 16 27 mph 1020.3mb 78f 73f
3:50am 7ft 8s 7s 16 20 mph 1020.3mb 78f 76f
2:50am 7ft 9s 7s 9 13 mph 1020.7mb 78f 75f
1:50am 7ft 11s 7s 20 22 mph 1020.7mb 78f 74f
12:50am 7ft 11s 7s 16 18 mph 1020.5mb 78f 76f
Tue 03/03 11:50pm 6.5ft 10s 7s 16 18 mph 1019.9mb 78f 76f
10:50pm 7ft 11s 7s 16 18 mph 1019.4mb 78f 76f
9:50pm 6.5ft 11s 7s 13 18 mph 1018.9mb 78f 76f
8:50pm 7ft 10s 7s 16 18 mph 1018.7mb 78f 76f
7:50pm 7ft 11s 7s 13 18 mph 1018.5mb 78f 76f
6:50pm 7ft 11s 7s 16 18 mph 1018.6mb 78f 76f
5:50pm 7.5ft 10s 7s 13 18 mph 1019.1mb 78f 76f
4:50pm 6.5ft 8s 7s 13 16 mph 1019.9mb 78f 76f
3:50pm 7ft 9s 7s 13 18 mph 1020.6mb 78f 76f
2:50pm 7ft 11s 7s 13 16 mph 1020.9mb 78f 76f
1:50pm 7ft 10s 7s 13 18 mph 1020.6mb 78f 76f
12:50pm 7.5ft 9s 7s 13 18 mph 1020.3mb 78f 76f
11:50am 7ft 11s 7s 13 16 mph 1019.5mb 78f 76f
10:50am 8ft 11s 7s 13 16 mph 1018.9mb 78f 76f
9:50am 7ft 11s 7s 13 18 mph 1018.3mb 78f 76f
8:50am 8ft 11s 7s 11 16 mph 1018mb 78f 76f
7:50am 8ft 11s 7s 13 18 mph 1017.9mb 78f 76f
6:50am 8ft 11s 7s 13 16 mph 1018.2mb 78f 76f
5:50am 8ft 11s 7s 13 16 mph 1018.7mb 78f 76f
4:50am 7.5ft 11s 7s 13 16 mph 1019.1mb 78f 76f
3:50am 7.5ft 11s 7s 16 20 mph 1019.4mb 78f 76f
2:50am 8ft 9s 7s 16 20 mph 1019.7mb 78f 76f
1:50am 8ft 10s 7s 18 20 mph 1019.8mb 78f 76f
12:50am 8ft 11s 7s 16 18 mph 1019.7mb 78f 76f
Mon 03/02 11:50pm 8.5ft 11s 7s 18 22 mph 1019.2mb 78f 76f
10:50pm 8.5ft 10s 7s 16 20 mph 1018.9mb 78f 76f
9:50pm 8.5ft 11s 7s 18 22 mph 1018.6mb 78f 76f
8:50pm 8ft 10s 7s 18 22 mph 1018.2mb 78f 77f
7:50pm 8.5ft 11s 7s 18 20 mph 1018.2mb 78f 77f
6:50pm 7.5ft 11s 7s 18 22 mph 1018.6mb 78f 77f
5:50pm 8ft 11s 7s 20 25 mph 1019mb 78f 77f
4:50pm 8.5ft 11s 7s 18 22 mph 1019.8mb 78f 76f
3:50pm 8.5ft 10s 7s 20 22 mph 1021mb 78f 77f
2:50pm 8.5ft 10s 7s 22 25 mph 1021.7mb 78f 77f
1:50pm 9ft 10s 7s 20 25 mph 1021.9mb 78f 77f
12:50pm 9ft 10s 7s 22 27 mph 1021.6mb 78f 77f
11:50am 8.5ft 10s 6s 22 27 mph 1021.1mb 78f 77f
10:50am 8.5ft 10s 7s 22 27 mph 1020.6mb 78f 77f